Time;durP1;ratioP1;P1;durP2;ratioP2;P2;SDS_P1;SDS_P2;PMS_P1;PMS_P2;Temp;Humidity;BMP_temperature;BMP_pressure;BME280_temperature;BME280_humidity;BME280_pressure;Samples;Min_cycle;Max_cycle;Signal;HPM_P1;HPM_P2
2023/02/16 00:00:30;;;;;;;0.20;0.03;;;8.60;99.90;;;;;;21145343;28;20440;-68
2023/02/16 00:10:35;;;;;;;0.20;0.10;;;8.40;99.90;;;;;;21126130;28;20414;-68
2023/02/16 00:20:41;;;;;;;0.20;0.10;;;8.50;99.90;;;;;;21162009;28;20447;-69
2023/02/16 00:30:45;;;;;;;0.20;0.10;;;8.70;99.90;;;;;;21160525;28;20410;-68
2023/02/16 00:40:50;;;;;;;0.20;0.10;;;8.80;99.90;;;;;;21141994;28;20766;-69
2023/02/16 00:50:54;;;;;;;0.20;0.10;;;8.80;99.90;;;;;;21141280;28;20403;-68
2023/02/16 01:01:06;;;;;;;0.20;0.10;;;8.90;99.90;;;;;;21159210;28;20587;-69
2023/02/16 01:11:11;;;;;;;0.20;0.10;;;8.90;99.90;;;;;;21157884;28;20418;-69
2023/02/16 01:21:17;;;;;;;0.20;0.10;;;8.70;99.90;;;;;;21156159;28;20730;-69
2023/02/16 01:31:21;;;;;;;0.20;0.10;;;8.60;99.90;;;;;;21156407;28;20770;-68
2023/02/16 01:41:37;;;;;;;0.20;0.10;;;8.70;99.90;;;;;;21154807;28;20406;-67
2023/02/16 01:51:50;;;;;;;0.20;0.10;;;8.80;99.90;;;;;;21154687;28;20406;-67
2023/02/16 02:01:57;;;;;;;0.20;0.10;;;8.80;99.90;;;;;;21154006;28;20402;-67
2023/02/16 02:12:07;;;;;;;0.20;0.10;;;8.80;99.90;;;;;;21134250;28;20406;-67
2023/02/16 02:33:22;;;;;;;0.20;0.10;;;8.70;99.90;;;;;;21148077;28;20768;-68
2023/02/16 02:43:29;;;;;;;0.20;0.10;;;8.80;99.90;;;;;;21131589;28;20403;-68
2023/02/16 02:53:38;;;;;;;0.20;0.10;;;8.80;99.90;;;;;;21149650;28;20808;-68
2023/02/16 03:03:45;;;;;;;0.20;0.10;;;8.70;99.90;;;;;;21114118;28;20805;-68
2023/02/16 03:13:55;;;;;;;0.20;0.10;;;8.60;99.90;;;;;;21113130;28;20403;-69
2023/02/16 03:34:26;;;;;;;0.20;0.10;;;8.50;99.90;;;;;;21146353;28;20420;-68
2023/02/16 03:44:30;;;;;;;0.20;0.10;;;8.30;99.90;;;;;;21141550;28;20897;-68
2023/02/16 03:54:36;;;;;;;0.20;0.10;;;8.30;99.90;;;;;;21127384;28;20885;-67
2023/02/16 04:04:39;;;;;;;0.20;0.10;;;8.20;99.90;;;;;;21144453;28;20398;-68
2023/02/16 04:14:45;;;;;;;0.20;0.10;;;8.00;99.90;;;;;;21126104;28;20704;-70
2023/02/16 04:24:48;;;;;;;0.20;0.10;;;7.90;99.90;;;;;;21126085;28;20440;-70
2023/02/16 04:34:54;;;;;;;0.20;0.10;;;7.80;99.90;;;;;;21124757;28;20399;-69
2023/02/16 04:44:58;;;;;;;0.20;0.10;;;7.80;99.90;;;;;;21142772;28;20402;-69
2023/02/16 04:55:04;;;;;;;0.20;0.10;;;7.80;99.90;;;;;;21155433;28;20405;-68
2023/02/16 05:05:09;;;;;;;0.20;0.10;;;7.80;99.90;;;;;;21155047;28;20414;-69
2023/02/16 05:15:14;;;;;;;0.20;0.10;;;7.70;99.90;;;;;;21137177;28;20452;-69
2023/02/16 05:25:17;;;;;;;0.20;0.10;;;7.70;99.90;;;;;;21156281;28;20422;-68
2023/02/16 05:35:23;;;;;;;0.20;0.07;;;7.80;99.90;;;;;;21169999;27;20391;-69
2023/02/16 05:45:27;;;;;;;0.20;0.10;;;7.70;99.90;;;;;;21137426;28;20440;-69
2023/02/16 05:55:32;;;;;;;0.20;0.10;;;7.80;99.90;;;;;;21136417;28;20778;-68
2023/02/16 06:05:36;;;;;;;0.20;0.10;;;7.80;99.90;;;;;;21152397;28;20919;-67
2023/02/16 06:15:41;;;;;;;0.20;0.10;;;7.80;99.90;;;;;;21133653;28;20398;-68
2023/02/16 06:25:49;;;;;;;0.20;0.10;;;7.70;99.90;;;;;;21133089;28;20434;-70
2023/02/16 06:35:54;;;;;;;0.20;0.10;;;7.70;99.90;;;;;;21149896;28;20402;-70
2023/02/16 06:45:58;;;;;;;0.20;0.10;;;7.80;99.90;;;;;;21148683;28;20421;-68
2023/02/16 06:56:03;;;;;;;0.20;0.10;;;7.80;99.90;;;;;;21145405;28;20424;-69
2023/02/16 07:06:07;;;;;;;0.20;0.10;;;8.00;99.90;;;;;;21125560;28;20434;-68
2023/02/16 07:16:13;;;;;;;0.20;0.10;;;8.00;99.90;;;;;;21126698;28;20401;-69
2023/02/16 07:26:17;;;;;;;0.20;0.10;;;7.90;99.90;;;;;;21144333;28;20890;-69
2023/02/16 07:36:23;;;;;;;0.20;0.10;;;8.00;99.90;;;;;;21126064;28;20398;-70
2023/02/16 07:46:27;;;;;;;0.20;0.10;;;8.20;99.90;;;;;;21144643;28;20419;-68
2023/02/16 07:56:33;;;;;;;0.20;0.10;;;8.40;99.90;;;;;;21144143;28;20406;-68
2023/02/16 08:06:37;;;;;;;0.20;0.10;;;8.60;99.90;;;;;;21142383;28;20420;-69
2023/02/16 08:16:42;;;;;;;0.20;0.03;;;9.00;99.90;;;;;;21106799;28;20417;-70
2023/02/16 08:26:48;;;;;;;0.20;0.10;;;9.60;99.90;;;;;;21144811;28;20931;-70
2023/02/16 08:36:55;;;;;;;0.20;0.10;;;10.00;99.90;;;;;;21156826;28;20537;-70
2023/02/16 08:47:01;;;;;;;0.20;0.10;;;10.00;99.90;;;;;;21137824;28;20521;-70
2023/02/16 08:57:07;;;;;;;0.20;0.10;;;10.40;99.90;;;;;;21156202;28;20402;-69
2023/02/16 09:07:12;;;;;;;0.20;0.10;;;10.80;99.90;;;;;;21136661;28;20403;-69
2023/02/16 09:17:18;;;;;;;0.20;0.00;;;11.10;99.90;;;;;;21156285;28;20402;-69
2023/02/16 09:27:22;;;;;;;0.20;0.10;;;11.80;99.90;;;;;;21120185;28;20498;-68
2023/02/16 09:37:27;;;;;;;0.20;0.10;;;12.50;99.90;;;;;;21135612;28;20796;-67
2023/02/16 09:47:36;;;;;;;0.20;0.10;;;13.10;99.90;;;;;;21134380;28;20406;-68
2023/02/16 09:57:56;;;;;;;0.20;0.10;;;13.80;99.90;;;;;;21132109;28;20395;-68
2023/02/16 10:08:03;;;;;;;0.20;0.10;;;13.30;99.90;;;;;;21129988;28;20485;-68
2023/02/16 10:18:18;;;;;;;0.20;0.10;;;13.10;99.90;;;;;;21149274;28;20853;-69
2023/02/16 10:28:31;;;;;;;0.20;0.10;;;13.40;99.90;;;;;;21127864;28;20402;-68
2023/02/16 10:38:42;;;;;;;0.20;0.00;;;13.60;99.90;;;;;;21146817;28;20387;-68
2023/02/16 10:48:46;;;;;;;0.20;0.10;;;13.90;99.90;;;;;;21110719;28;20422;-68
2023/02/16 10:58:52;;;;;;;0.20;0.10;;;13.90;99.90;;;;;;21143355;28;20394;-73
2023/02/16 11:08:59;;;;;;;0.20;0.03;;;14.00;99.90;;;;;;21103880;28;20457;-67
2023/02/16 11:19:07;;;;;;;0.20;0.10;;;14.10;99.90;;;;;;21026208;28;20823;-68
2023/02/16 11:29:19;;;;;;;0.20;0.10;;;14.30;99.90;;;;;;21060501;28;20853;-67
2023/02/16 11:39:29;;;;;;;0.20;0.10;;;14.30;99.90;;;;;;21050693;28;20417;-67
2023/02/16 11:49:36;;;;;;;0.20;0.10;;;14.20;99.90;;;;;;21124245;28;20893;-65
2023/02/16 11:59:41;;;;;;;0.20;0.10;;;14.40;99.90;;;;;;21102549;28;20389;-68
2023/02/16 12:09:53;;;;;;;0.20;0.00;;;14.60;99.90;;;;;;21057628;28;20408;-68
2023/02/16 12:20:05;;;;;;;0.20;0.10;;;14.20;99.90;;;;;;21058726;28;20423;-68
2023/02/16 12:30:24;;;;;;;0.20;0.10;;;14.30;99.90;;;;;;21154086;28;20402;-68
2023/02/16 12:40:51;;;;;;;0.20;0.10;;;14.40;99.90;;;;;;21104113;28;20399;-68
2023/02/16 12:50:56;;;;;;;0.20;0.10;;;14.40;99.90;;;;;;21120554;28;20415;-68
2023/02/16 13:01:06;;;;;;;0.20;0.10;;;14.60;99.90;;;;;;21105727;28;20406;-69
2023/02/16 13:11:17;;;;;;;0.20;0.10;;;15.20;99.90;;;;;;21043011;28;20434;-70
2023/02/16 13:21:49;;;;;;;0.20;0.10;;;15.40;99.90;;;;;;21071313;28;20397;-69
2023/02/16 13:32:06;;;;;;;0.20;0.05;;;15.20;99.90;;;;;;21069345;28;20396;-68
2023/02/16 13:42:34;;;;;;;0.20;0.10;;;15.20;99.90;;;;;;21086478;28;20463;-68
2023/02/16 13:52:40;;;;;;;0.20;0.00;;;15.40;99.90;;;;;;21133974;28;20415;-69
2023/02/16 14:03:06;;;;;;;0.20;0.03;;;15.30;99.90;;;;;;21115457;28;20467;-67
2023/02/16 14:13:14;;;;;;;0.20;0.10;;;15.70;99.90;;;;;;21147873;28;20421;-68
2023/02/16 14:23:33;;;;;;;0.20;0.10;;;16.60;99.90;;;;;;21147920;28;20407;-68
2023/02/16 14:33:44;;;;;;;0.20;0.10;;;16.50;99.90;;;;;;21162140;27;20825;-68
2023/02/16 14:43:54;;;;;;;0.20;0.00;;;16.40;99.90;;;;;;21144929;28;20403;-68
2023/02/16 14:54:22;;;;;;;0.20;0.10;;;15.80;99.90;;;;;;21111279;28;20446;-68
2023/02/16 15:04:32;;;;;;;0.20;0.10;;;15.40;99.90;;;;;;21123656;28;20410;-68
2023/02/16 15:14:42;;;;;;;0.20;0.10;;;15.50;99.90;;;;;;21144700;28;20766;-68
2023/02/16 15:24:58;;;;;;;0.20;0.10;;;15.20;99.90;;;;;;21097812;28;20469;-68
2023/02/16 15:35:11;;;;;;;0.20;0.10;;;15.10;99.90;;;;;;21003536;28;20824;-68
2023/02/16 15:45:36;;;;;;;0.20;0.10;;;15.10;99.90;;;;;;21035051;28;20416;-67
2023/02/16 15:55:45;;;;;;;0.20;0.08;;;14.80;99.90;;;;;;21006606;28;20730;-68
2023/02/16 16:06:04;;;;;;;0.20;0.10;;;14.70;99.90;;;;;;20997292;28;20462;-68
2023/02/16 16:16:09;;;;;;;0.20;0.10;;;14.90;99.90;;;;;;21051946;28;20833;-69
2023/02/16 16:26:22;;;;;;;0.20;0.00;;;15.50;99.90;;;;;;21056534;28;20460;-68
2023/02/16 16:36:31;;;;;;;0.20;0.10;;;15.70;99.90;;;;;;21136732;28;20394;-68
2023/02/16 16:46:37;;;;;;;0.20;0.10;;;14.90;99.90;;;;;;21143429;28;20457;-67
2023/02/16 16:56:41;;;;;;;0.20;0.10;;;14.40;99.90;;;;;;21153439;28;20413;-67
2023/02/16 17:06:47;;;;;;;0.20;0.10;;;13.90;99.90;;;;;;21133418;28;20841;-67
2023/02/16 17:16:53;;;;;;;0.20;0.10;;;13.40;99.90;;;;;;21151721;28;20399;-68
2023/02/16 17:26:58;;;;;;;0.20;0.10;;;13.10;99.90;;;;;;21148101;28;20406;-68
2023/02/16 17:37:06;;;;;;;0.20;0.10;;;12.60;99.90;;;;;;21129016;28;20391;-68
2023/02/16 17:47:15;;;;;;;0.20;0.10;;;12.10;99.90;;;;;;21133555;28;20417;-68
2023/02/16 17:57:19;;;;;;;0.20;0.00;;;11.40;99.90;;;;;;21151811;28;20487;-71
2023/02/16 18:07:25;;;;;;;0.20;0.10;;;10.90;99.90;;;;;;21151087;28;20451;-68
2023/02/16 18:17:29;;;;;;;0.20;0.10;;;10.50;99.90;;;;;;21131440;28;20402;-68
2023/02/16 18:27:34;;;;;;;0.20;0.00;;;10.10;99.90;;;;;;21149953;28;20398;-68
2023/02/16 18:37:38;;;;;;;0.20;0.10;;;9.90;99.90;;;;;;21128953;28;20386;-68
2023/02/16 18:47:44;;;;;;;0.20;0.10;;;9.80;99.90;;;;;;21123821;28;20490;-69
2023/02/16 18:57:47;;;;;;;0.20;0.10;;;9.50;99.90;;;;;;21111954;28;20460;-69
2023/02/16 19:07:53;;;;;;;0.20;0.10;;;9.20;99.90;;;;;;21127729;28;20487;-69
2023/02/16 19:17:57;;;;;;;0.20;0.10;;;9.10;99.90;;;;;;21145188;28;20455;-68
2023/02/16 19:28:02;;;;;;;0.20;0.10;;;9.10;99.90;;;;;;21144101;28;20989;-68
2023/02/16 19:38:06;;;;;;;0.20;0.10;;;8.90;99.90;;;;;;21108955;28;20829;-69
2023/02/16 19:48:12;;;;;;;0.20;0.10;;;8.50;99.90;;;;;;21144795;28;20411;-68
2023/02/16 19:58:16;;;;;;;0.20;0.00;;;8.40;99.90;;;;;;21125216;28;20433;-69
2023/02/16 20:08:21;;;;;;;0.20;0.10;;;8.40;99.90;;;;;;21126696;28;20417;-69
2023/02/16 20:18:25;;;;;;;0.20;0.10;;;8.40;99.90;;;;;;21124423;28;20410;-67
2023/02/16 20:28:30;;;;;;;0.20;0.10;;;8.30;99.90;;;;;;21140817;28;20758;-68
2023/02/16 20:38:35;;;;;;;0.20;0.10;;;8.10;99.90;;;;;;21140589;28;20439;-69
2023/02/16 20:48:40;;;;;;;0.20;0.10;;;7.90;99.90;;;;;;21174174;27;20394;-68
2023/02/16 20:58:45;;;;;;;0.20;0.10;;;7.80;99.90;;;;;;21156853;28;20740;-69
2023/02/16 21:08:50;;;;;;;0.20;0.10;;;8.00;99.90;;;;;;21150113;28;20403;-69
2023/02/16 21:18:54;;;;;;;0.40;0.40;;;8.20;99.90;;;;;;21148674;28;20956;-69
2023/02/16 21:29:00;;;;;;;0.20;0.10;;;8.00;99.90;;;;;;21112166;28;20479;-68
2023/02/16 21:39:03;;;;;;;0.20;0.10;;;7.90;99.90;;;;;;21148485;28;20407;-69
2023/02/16 21:49:12;;;;;;;0.20;0.10;;;7.90;99.90;;;;;;21151518;28;20411;-69
2023/02/16 21:59:18;;;;;;;0.20;0.10;;;7.90;99.90;;;;;;21133386;28;20391;-69
2023/02/16 22:09:23;;;;;;;0.20;0.10;;;7.90;99.90;;;;;;21133460;28;20707;-69
2023/02/16 22:19:27;;;;;;;0.20;0.10;;;7.70;99.90;;;;;;21146022;28;20402;-69
2023/02/16 22:29:32;;;;;;;0.20;0.10;;;7.80;99.90;;;;;;21145355;28;20411;-69
2023/02/16 22:39:37;;;;;;;0.20;0.10;;;7.70;99.90;;;;;;21125765;28;20395;-68
2023/02/16 22:49:42;;;;;;;0.20;0.10;;;7.80;99.90;;;;;;21122652;28;20413;-68
2023/02/16 22:59:46;;;;;;;0.20;0.10;;;7.90;99.90;;;;;;21124804;28;20395;-68
2023/02/16 23:09:52;;;;;;;0.20;0.10;;;7.20;99.90;;;;;;21124189;28;20460;-69
2023/02/16 23:19:55;;;;;;;0.20;0.10;;;7.30;99.90;;;;;;21126628;28;20792;-67
2023/02/16 23:30:01;;;;;;;0.20;0.10;;;7.50;99.90;;;;;;21144689;28;20441;-68
2023/02/16 23:40:05;;;;;;;0.20;0.10;;;7.40;99.90;;;;;;21145278;28;20859;-69
2023/02/16 23:50:11;;;;;;;0.20;0.10;;;7.40;99.90;;;;;;21144696;28;20410;-69
